Time;durP1;ratioP1;P1;durP2;ratioP2;P2;SDS_P1;SDS_P2;PMS_P1;PMS_P2;Temp;Humidity;BMP_temperature;BMP_pressure;BME280_temperature;BME280_humidity;BME280_pressure;Samples;Min_cycle;Max_cycle;Signal;HPM_P1;HPM_P2
2023/03/13 00:01:37;;;;;;;39.13;10.60;;;;;;;;;;10485447;28;20039;-71
2023/03/13 00:06:58;;;;;;;35.05;10.73;;;;;;;;;;10482431;28;20031;-70
2023/03/13 00:12:19;;;;;;;39.40;10.35;;;;;;;;;;10477928;28;20386;-72
2023/03/13 00:17:40;;;;;;;41.85;10.63;;;;;;;;;;10492996;28;20504;-72
2023/03/13 00:23:01;;;;;;;38.78;11.65;;;;;;;;;;10491423;28;21211;-72
2023/03/13 00:28:22;;;;;;;28.15;9.63;;;;;;;;;;10505211;28;20103;-72
2023/03/13 00:33:44;;;;;;;31.52;9.85;;;;;;;;;;10496985;28;20036;-72
2023/03/13 00:39:06;;;;;;;31.38;10.50;;;;;;;;;;10504853;28;20078;-71
2023/03/13 00:44:26;;;;;;;32.00;9.10;;;;;;;;;;10504352;28;20032;-71
2023/03/13 00:49:47;;;;;;;36.55;11.07;;;;;;;;;;10489723;28;20036;-71
2023/03/13 00:55:08;;;;;;;35.78;10.77;;;;;;;;;;10504540;28;20638;-71
2023/03/13 01:00:29;;;;;;;45.10;11.70;;;;;;;;;;10497973;28;20032;-71
2023/03/13 01:05:54;;;;;;;32.35;10.98;;;;;;;;;;10508512;28;20408;-71
2023/03/13 01:11:16;;;;;;;44.90;12.00;;;;;;;;;;10479254;28;20036;-71
2023/03/13 01:16:38;;;;;;;36.47;11.80;;;;;;;;;;10488779;28;20718;-72
2023/03/13 01:21:58;;;;;;;33.90;10.77;;;;;;;;;;10479151;28;20238;-72
2023/03/13 01:27:19;;;;;;;50.30;14.07;;;;;;;;;;10502871;28;20488;-71
2023/03/13 01:32:40;;;;;;;55.17;15.45;;;;;;;;;;10487218;28;20024;-71
2023/03/13 01:38:01;;;;;;;41.53;13.18;;;;;;;;;;10481526;28;20040;-72
2023/03/13 01:43:23;;;;;;;33.15;11.15;;;;;;;;;;10493972;28;20114;-71
2023/03/13 01:48:59;;;;;;;25.38;10.50;;;;;;;;;;10501644;28;20032;-71
2023/03/13 01:54:23;;;;;;;37.95;13.88;;;;;;;;;;10486230;28;20066;-71
2023/03/13 01:59:50;;;;;;;29.58;11.32;;;;;;;;;;10487640;28;20032;-72
2023/03/13 02:05:12;;;;;;;23.67;10.90;;;;;;;;;;10553123;28;20050;-80
2023/03/13 02:10:37;;;;;;;27.98;12.55;;;;;;;;;;10543994;28;20040;-78
2023/03/13 02:15:58;;;;;;;24.25;13.20;;;;;;;;;;10550722;28;20040;-79
2023/03/13 02:21:25;;;;;;;25.42;11.05;;;;;;;;;;10523103;28;20044;-78
2023/03/13 02:26:46;;;;;;;21.33;9.98;;;;;;;;;;10525543;28;20040;-79
2023/03/13 02:32:07;;;;;;;19.35;8.48;;;;;;;;;;10557461;28;20393;-78
2023/03/13 02:37:29;;;;;;;17.85;8.88;;;;;;;;;;10537496;28;20044;-78
2023/03/13 02:42:51;;;;;;;16.15;8.85;;;;;;;;;;10538759;28;20045;-77
2023/03/13 02:48:11;;;;;;;19.67;9.25;;;;;;;;;;10547073;28;20049;-78
2023/03/13 02:53:33;;;;;;;18.45;9.32;;;;;;;;;;10524129;28;20040;-78
2023/03/13 02:58:54;;;;;;;18.83;8.05;;;;;;;;;;10559324;28;20047;-80
2023/03/13 03:04:15;;;;;;;17.95;9.07;;;;;;;;;;10566337;28;20554;-79
2023/03/13 03:09:36;;;;;;;17.58;9.27;;;;;;;;;;10565918;28;20032;-78
2023/03/13 03:14:57;;;;;;;19.95;11.32;;;;;;;;;;10547526;28;20036;-80
2023/03/13 03:20:18;;;;;;;26.42;11.50;;;;;;;;;;10527077;28;20058;-74
2023/03/13 03:25:39;;;;;;;31.05;11.82;;;;;;;;;;10483831;28;20557;-74
2023/03/13 03:31:07;;;;;;;36.45;13.70;;;;;;;;;;10473789;28;20036;-74
2023/03/13 03:36:28;;;;;;;37.97;13.75;;;;;;;;;;10464385;28;20035;-74
2023/03/13 03:41:49;;;;;;;32.53;12.93;;;;;;;;;;10478171;28;20044;-74
2023/03/13 03:47:10;;;;;;;39.60;14.23;;;;;;;;;;10481749;28;20753;-74
2023/03/13 03:52:31;;;;;;;41.33;14.45;;;;;;;;;;10477725;28;20504;-74
2023/03/13 03:57:52;;;;;;;40.25;14.13;;;;;;;;;;10475042;28;20043;-74
2023/03/13 04:03:13;;;;;;;26.55;11.88;;;;;;;;;;10481431;28;20044;-73
2023/03/13 04:08:35;;;;;;;29.25;12.60;;;;;;;;;;10477291;28;20414;-74
2023/03/13 04:13:55;;;;;;;27.90;13.18;;;;;;;;;;10475440;28;20052;-74
2023/03/13 04:19:16;;;;;;;22.38;10.70;;;;;;;;;;10483130;28;20033;-74
2023/03/13 04:24:37;;;;;;;22.50;10.45;;;;;;;;;;10492683;28;20043;-75
2023/03/13 04:29:58;;;;;;;21.88;11.25;;;;;;;;;;10482224;28;20040;-75
2023/03/13 04:35:19;;;;;;;25.30;11.38;;;;;;;;;;10502195;28;20035;-74
2023/03/13 04:40:42;;;;;;;15.02;9.57;;;;;;;;;;10496758;28;20051;-75
2023/03/13 04:46:02;;;;;;;21.50;10.48;;;;;;;;;;10502574;28;20556;-75
2023/03/13 04:51:23;;;;;;;27.85;12.25;;;;;;;;;;10480753;28;20032;-75
2023/03/13 04:56:44;;;;;;;22.25;10.30;;;;;;;;;;10470337;28;20119;-74
2023/03/13 05:02:05;;;;;;;25.65;10.75;;;;;;;;;;10495729;28;20036;-74
2023/03/13 05:07:26;;;;;;;24.67;10.00;;;;;;;;;;10484680;28;20044;-73
2023/03/13 05:12:47;;;;;;;28.90;11.70;;;;;;;;;;10472874;28;20043;-74
2023/03/13 05:18:08;;;;;;;25.35;9.50;;;;;;;;;;10474147;28;20408;-74
2023/03/13 05:23:29;;;;;;;26.48;10.90;;;;;;;;;;10465569;28;20520;-74
2023/03/13 05:28:50;;;;;;;32.25;11.20;;;;;;;;;;10493007;28;20032;-74
2023/03/13 05:34:11;;;;;;;20.85;9.50;;;;;;;;;;10503330;28;20037;-73
2023/03/13 05:39:31;;;;;;;15.95;8.60;;;;;;;;;;10516772;28;20035;-73
2023/03/13 05:44:52;;;;;;;18.55;8.32;;;;;;;;;;10503498;28;20032;-73
2023/03/13 05:50:13;;;;;;;22.75;9.77;;;;;;;;;;10494429;28;20084;-73
2023/03/13 05:55:34;;;;;;;17.90;8.15;;;;;;;;;;10501910;28;20037;-73
2023/03/13 06:00:55;;;;;;;16.23;7.97;;;;;;;;;;10498524;28;20029;-73
2023/03/13 06:06:16;;;;;;;23.00;9.35;;;;;;;;;;10495175;28;20028;-73
2023/03/13 06:11:37;;;;;;;17.98;7.93;;;;;;;;;;10498521;28;20032;-71
2023/03/13 06:16:58;;;;;;;11.35;6.75;;;;;;;;;;10491600;28;20472;-71
2023/03/13 06:22:19;;;;;;;16.73;7.45;;;;;;;;;;10521897;28;20036;-71
2023/03/13 06:27:40;;;;;;;20.17;8.07;;;;;;;;;;10496491;28;20032;-71
2023/03/13 06:33:01;;;;;;;21.90;9.15;;;;;;;;;;10499503;28;20493;-70
2023/03/13 06:38:23;;;;;;;16.75;8.00;;;;;;;;;;10485008;28;20033;-70
2023/03/13 06:43:44;;;;;;;22.63;9.02;;;;;;;;;;10482800;28;20024;-71
2023/03/13 06:49:05;;;;;;;19.20;8.27;;;;;;;;;;10508933;28;20440;-70
2023/03/13 06:54:26;;;;;;;17.90;8.02;;;;;;;;;;10510264;28;20114;-70
2023/03/13 06:59:47;;;;;;;15.90;7.32;;;;;;;;;;10501558;28;20039;-70
2023/03/13 07:05:08;;;;;;;15.52;6.63;;;;;;;;;;10514523;28;20036;-70
2023/03/13 07:10:29;;;;;;;21.60;8.23;;;;;;;;;;10517161;28;20044;-70
2023/03/13 07:15:50;;;;;;;16.60;6.40;;;;;;;;;;10520235;28;20385;-70
2023/03/13 07:21:11;;;;;;;20.77;8.45;;;;;;;;;;10513429;28;20405;-70
2023/03/13 07:26:32;;;;;;;15.15;7.72;;;;;;;;;;10514952;28;20439;-70
2023/03/13 07:31:53;;;;;;;19.85;8.27;;;;;;;;;;10526867;28;20043;-70
2023/03/13 07:37:14;;;;;;;21.20;7.70;;;;;;;;;;10508435;28;20039;-70
2023/03/13 07:42:38;;;;;;;16.67;6.70;;;;;;;;;;10496676;28;20074;-70
2023/03/13 07:47:59;;;;;;;12.55;6.72;;;;;;;;;;10508865;28;20050;-71
2023/03/13 07:53:20;;;;;;;20.42;7.22;;;;;;;;;;10497995;28;20378;-70
2023/03/13 07:58:41;;;;;;;22.10;8.05;;;;;;;;;;10528334;28;20040;-70
2023/03/13 08:04:03;;;;;;;16.52;6.97;;;;;;;;;;10500759;28;20170;-71
2023/03/13 08:09:23;;;;;;;21.20;7.88;;;;;;;;;;10506248;28;21470;-70
2023/03/13 08:14:44;;;;;;;20.15;8.20;;;;;;;;;;10513376;28;20490;-70
2023/03/13 08:20:07;;;;;;;13.18;6.25;;;;;;;;;;10507586;28;20036;-70
2023/03/13 08:25:27;;;;;;;21.80;8.13;;;;;;;;;;10504901;28;20039;-76
2023/03/13 08:30:48;;;;;;;18.65;6.90;;;;;;;;;;10493175;28;20036;-71
2023/03/13 08:36:09;;;;;;;14.68;6.18;;;;;;;;;;10505432;28;20508;-72
2023/03/13 08:41:33;;;;;;;14.40;6.70;;;;;;;;;;10511659;28;20029;-71
2023/03/13 08:46:55;;;;;;;17.55;7.63;;;;;;;;;;10494530;28;20452;-74
2023/03/13 08:52:16;;;;;;;29.23;9.68;;;;;;;;;;10491801;28;20040;-74
2023/03/13 08:57:37;;;;;;;17.33;7.60;;;;;;;;;;10498220;28;20074;-74
2023/03/13 09:02:58;;;;;;;18.08;6.70;;;;;;;;;;10537648;28;20039;-74
2023/03/13 09:08:19;;;;;;;20.48;7.90;;;;;;;;;;10500669;28;20048;-74
2023/03/13 09:13:41;;;;;;;13.85;7.07;;;;;;;;;;10532023;27;20435;-70
2023/03/13 09:19:03;;;;;;;20.95;7.65;;;;;;;;;;10506453;28;20036;-70
2023/03/13 09:24:24;;;;;;;10.77;5.80;;;;;;;;;;10502169;28;20028;-70
2023/03/13 09:29:45;;;;;;;12.82;5.28;;;;;;;;;;10507141;28;20039;-70
2023/03/13 09:35:06;;;;;;;17.30;6.32;;;;;;;;;;10516823;28;20039;-70
2023/03/13 09:40:27;;;;;;;16.83;6.22;;;;;;;;;;10486624;28;20059;-71
2023/03/13 09:45:48;;;;;;;23.25;8.18;;;;;;;;;;10499612;28;20032;-70
2023/03/13 09:51:12;;;;;;;15.38;6.75;;;;;;;;;;10503613;28;20493;-70
2023/03/13 09:56:36;;;;;;;9.77;5.15;;;;;;;;;;10490769;28;20059;-70
2023/03/13 10:01:57;;;;;;;18.80;6.90;;;;;;;;;;10495785;28;20469;-71
2023/03/13 10:07:20;;;;;;;14.57;6.38;;;;;;;;;;10477791;28;20037;-72
2023/03/13 10:12:44;;;;;;;17.50;6.55;;;;;;;;;;10498967;27;20029;-72
2023/03/13 10:18:14;;;;;;;15.82;6.63;;;;;;;;;;10489039;28;20040;-72
2023/03/13 10:23:43;;;;;;;15.10;5.93;;;;;;;;;;10484205;28;20709;-71
2023/03/13 10:29:19;;;;;;;18.00;6.93;;;;;;;;;;10479024;28;20371;-70
2023/03/13 10:34:50;;;;;;;17.85;7.10;;;;;;;;;;10477460;28;20039;-70
2023/03/13 10:40:11;;;;;;;;;;;;;;;;;;10491936;28;20040;-70
2023/03/13 10:45:34;;;;;;;13.20;6.07;;;;;;;;;;10502417;28;19951;-71
2023/03/13 10:50:58;;;;;;;10.57;5.43;;;;;;;;;;10484822;28;20054;-71
2023/03/13 10:56:25;;;;;;;10.93;6.15;;;;;;;;;;10488145;28;20488;-71
2023/03/13 11:01:46;;;;;;;13.05;6.35;;;;;;;;;;10496505;28;20024;-72
2023/03/13 11:07:27;;;;;;;18.75;7.20;;;;;;;;;;10490721;28;20032;-73
2023/03/13 11:12:52;;;;;;;17.33;6.45;;;;;;;;;;10493769;28;20040;-72
2023/03/13 11:18:23;;;;;;;11.27;5.45;;;;;;;;;;10465047;28;20145;-73
2023/03/13 11:23:43;;;;;;;;;;;;;;;;;;10485859;28;20044;-73
2023/03/13 11:29:23;;;;;;;10.23;5.43;;;;;;;;;;10485366;28;19920;-72
2023/03/13 11:34:56;;;;;;;19.33;7.32;;;;;;;;;;10482084;28;20036;-72
2023/03/13 11:40:21;;;;;;;12.23;5.65;;;;;;;;;;10497571;27;20036;-72
2023/03/13 11:45:51;;;;;;;8.23;4.28;;;;;;;;;;10495024;28;20043;-72
2023/03/13 11:51:19;;;;;;;8.48;5.15;;;;;;;;;;10504622;28;20048;-73
2023/03/13 11:56:49;;;;;;;11.95;5.57;;;;;;;;;;10483226;28;20039;-72
2023/03/13 12:02:16;;;;;;;19.70;6.85;;;;;;;;;;10503196;28;20047;-72
2023/03/13 12:07:46;;;;;;;12.88;5.40;;;;;;;;;;10493740;28;20150;-78
2023/03/13 12:13:22;;;;;;;12.40;5.72;;;;;;;;;;10514319;28;20028;-79
2023/03/13 12:18:44;;;;;;;10.13;5.32;;;;;;;;;;10538347;28;20488;-79
2023/03/13 12:24:05;;;;;;;10.77;5.07;;;;;;;;;;10500110;28;20029;-79
2023/03/13 12:29:29;;;;;;;11.45;5.22;;;;;;;;;;10538100;28;20043;-79
2023/03/13 12:35:02;;;;;;;16.90;9.02;;;;;;;;;;10555686;28;20032;-80
2023/03/13 12:40:38;;;;;;;7.55;4.57;;;;;;;;;;10551945;28;20035;-79
2023/03/13 12:45:59;;;;;;;10.27;4.57;;;;;;;;;;10525796;28;20047;-79
2023/03/13 12:51:32;;;;;;;10.50;4.70;;;;;;;;;;10532276;28;20040;-79
2023/03/13 12:56:56;;;;;;;10.05;4.30;;;;;;;;;;10499464;28;20055;-79
2023/03/13 13:02:22;;;;;;;17.27;7.15;;;;;;;;;;10526211;28;20028;-80
2023/03/13 13:07:51;;;;;;;11.10;4.35;;;;;;;;;;10512646;28;20039;-79
2023/03/13 13:13:15;;;;;;;16.23;6.97;;;;;;;;;;10501712;28;20036;-79
2023/03/13 13:18:35;;;;;;;10.20;5.82;;;;;;;;;;10520632;28;20039;-79
2023/03/13 13:24:17;;;;;;;11.43;6.18;;;;;;;;;;10519640;28;20043;-79
2023/03/13 13:29:38;;;;;;;8.38;5.43;;;;;;;;;;10508095;28;20043;-79
2023/03/13 13:35:05;;;;;;;14.88;5.43;;;;;;;;;;10496855;28;20039;-79
2023/03/13 13:40:28;;;;;;;15.93;6.00;;;;;;;;;;10508495;28;20044;-80
2023/03/13 13:46:15;;;;;;;6.85;3.65;;;;;;;;;;10503048;28;20055;-80
2023/03/13 13:51:39;;;;;;;11.18;5.15;;;;;;;;;;10506113;28;20063;-79
2023/03/13 13:57:06;;;;;;;13.82;4.97;;;;;;;;;;10507792;28;20043;-77
2023/03/13 14:02:32;;;;;;;14.98;6.60;;;;;;;;;;10508337;28;20040;-77
2023/03/13 14:08:02;;;;;;;11.40;4.97;;;;;;;;;;10522474;28;20027;-78
2023/03/13 14:13:23;;;;;;;17.45;6.80;;;;;;;;;;10515330;27;20043;-78
2023/03/13 14:18:44;;;;;;;11.75;4.78;;;;;;;;;;10509380;28;20367;-78
2023/03/13 14:24:11;;;;;;;21.75;7.20;;;;;;;;;;10521092;27;20044;-78
2023/03/13 14:29:32;;;;;;;11.75;5.47;;;;;;;;;;10509717;28;20031;-78
2023/03/13 14:34:53;;;;;;;9.95;4.50;;;;;;;;;;10501313;28;20037;-78
2023/03/13 14:40:17;;;;;;;15.88;6.20;;;;;;;;;;10500290;28;20039;-77
2023/03/13 14:45:38;;;;;;;18.67;7.40;;;;;;;;;;10500184;28;20032;-78
2023/03/13 14:51:22;;;;;;;11.75;5.55;;;;;;;;;;10510736;28;20405;-78
2023/03/13 14:56:44;;;;;;;11.82;5.00;;;;;;;;;;10503253;28;20039;-78
2023/03/13 15:02:24;;;;;;;12.73;5.38;;;;;;;;;;10509795;28;20137;-78
2023/03/13 15:07:47;;;;;;;8.87;4.50;;;;;;;;;;10506144;28;20418;-78
2023/03/13 15:13:31;;;;;;;8.23;4.90;;;;;;;;;;10498597;28;20075;-78
2023/03/13 15:18:53;;;;;;;11.98;4.97;;;;;;;;;;10499318;28;20047;-78
2023/03/13 15:24:14;;;;;;;22.08;7.47;;;;;;;;;;10487508;28;20052;-78
2023/03/13 15:29:35;;;;;;;10.38;4.57;;;;;;;;;;10496735;28;20392;-78
2023/03/13 15:35:00;;;;;;;19.35;7.22;;;;;;;;;;10503737;27;20488;-77
2023/03/13 15:40:23;;;;;;;12.32;5.35;;;;;;;;;;10479630;28;20028;-78
2023/03/13 15:45:44;;;;;;;16.08;6.38;;;;;;;;;;10484446;28;20317;-77
2023/03/13 15:51:05;;;;;;;17.77;6.45;;;;;;;;;;10474425;28;20040;-77
2023/03/13 15:56:28;;;;;;;18.20;6.97;;;;;;;;;;10485226;28;20788;-77
2023/03/13 16:01:49;;;;;;;14.38;5.82;;;;;;;;;;10476421;28;20071;-77
2023/03/13 16:07:11;;;;;;;24.10;8.63;;;;;;;;;;10473018;28;20043;-77
2023/03/13 16:12:32;;;;;;;22.30;7.43;;;;;;;;;;10435949;28;21046;-77
2023/03/13 16:17:54;;;;;;;23.55;7.35;;;;;;;;;;10448988;28;20033;-77
2023/03/13 16:23:15;;;;;;;24.60;8.10;;;;;;;;;;10452523;28;20043;-77
2023/03/13 16:28:36;;;;;;;21.00;7.63;;;;;;;;;;10450172;28;20052;-77
2023/03/13 16:33:58;;;;;;;20.75;7.38;;;;;;;;;;10444766;28;20032;-77
2023/03/13 16:39:19;;;;;;;32.53;9.95;;;;;;;;;;10475398;28;20408;-77
2023/03/13 16:44:40;;;;;;;22.33;6.43;;;;;;;;;;10458040;28;21143;-77
2023/03/13 16:50:02;;;;;;;21.38;7.57;;;;;;;;;;10442238;28;20036;-77
2023/03/13 16:55:27;;;;;;;22.27;7.80;;;;;;;;;;10477851;28;20048;-77
2023/03/13 17:00:48;;;;;;;24.75;7.53;;;;;;;;;;10480717;28;20036;-76
2023/03/13 17:06:16;;;;;;;26.65;10.80;;;;;;;;;;10468563;28;20047;-76
2023/03/13 17:11:37;;;;;;;22.67;7.85;;;;;;;;;;10455348;28;20144;-76
2023/03/13 17:16:59;;;;;;;31.70;9.80;;;;;;;;;;10467987;28;20016;-77
2023/03/13 17:22:20;;;;;;;25.55;8.02;;;;;;;;;;10462557;28;20060;-76
2023/03/13 17:27:41;;;;;;;31.90;10.23;;;;;;;;;;10454619;28;20043;-76
2023/03/13 17:33:02;;;;;;;26.38;9.13;;;;;;;;;;10447028;28;20033;-75
2023/03/13 17:38:23;;;;;;;28.75;9.15;;;;;;;;;;10461715;28;20044;-76
2023/03/13 17:43:44;;;;;;;22.23;7.78;;;;;;;;;;10449783;28;20627;-76
2023/03/13 17:49:06;;;;;;;13.18;5.72;;;;;;;;;;10486915;28;20039;-76
2023/03/13 17:54:27;;;;;;;16.55;5.95;;;;;;;;;;10499413;28;20063;-76
2023/03/13 17:59:48;;;;;;;10.80;5.53;;;;;;;;;;10497780;28;20040;-76
2023/03/13 18:05:09;;;;;;;14.63;5.57;;;;;;;;;;10478402;28;20516;-76
2023/03/13 18:10:30;;;;;;;16.38;6.13;;;;;;;;;;10504316;28;20028;-76
2023/03/13 18:15:51;;;;;;;15.50;5.82;;;;;;;;;;10488456;28;20027;-76
2023/03/13 18:21:12;;;;;;;16.60;6.60;;;;;;;;;;10480717;28;20038;-76
2023/03/13 18:26:34;;;;;;;15.55;6.05;;;;;;;;;;10496060;28;20024;-76
2023/03/13 18:31:57;;;;;;;11.95;5.85;;;;;;;;;;10509995;28;20032;-77
2023/03/13 18:37:20;;;;;;;14.18;5.70;;;;;;;;;;10511668;28;20024;-76
2023/03/13 18:42:41;;;;;;;10.65;5.40;;;;;;;;;;10518471;28;20389;-76
2023/03/13 18:48:02;;;;;;;16.13;6.50;;;;;;;;;;10505928;28;20036;-76
2023/03/13 18:53:23;;;;;;;19.63;7.63;;;;;;;;;;10521239;28;20395;-76
2023/03/13 18:58:45;;;;;;;12.73;6.10;;;;;;;;;;10485323;28;20036;-77
2023/03/13 19:04:06;;;;;;;14.80;5.85;;;;;;;;;;10514057;27;20055;-76
2023/03/13 19:09:27;;;;;;;13.98;5.82;;;;;;;;;;10488135;28;20047;-76
2023/03/13 19:14:47;;;;;;;13.90;5.72;;;;;;;;;;10503209;28;20036;-76
2023/03/13 19:20:12;;;;;;;16.98;6.18;;;;;;;;;;10528680;28;20094;-77
2023/03/13 19:25:33;;;;;;;14.10;6.30;;;;;;;;;;10517193;28;20028;-76
2023/03/13 19:30:54;;;;;;;21.25;6.10;;;;;;;;;;10519101;28;20435;-76
2023/03/13 19:36:16;;;;;;;21.80;6.40;;;;;;;;;;10499135;28;20082;-76
2023/03/13 19:41:37;;;;;;;15.43;5.97;;;;;;;;;;10496618;28;20047;-76
2023/03/13 19:46:59;;;;;;;30.20;9.35;;;;;;;;;;10508891;28;20067;-76
2023/03/13 19:52:20;;;;;;;23.80;8.48;;;;;;;;;;10497308;28;20040;-74
2023/03/13 19:57:41;;;;;;;13.55;5.78;;;;;;;;;;10526316;27;20040;-75
2023/03/13 20:03:02;;;;;;;19.80;7.70;;;;;;;;;;10493580;28;20044;-75
2023/03/13 20:08:23;;;;;;;21.58;7.78;;;;;;;;;;10511229;28;20500;-74
2023/03/13 20:13:44;;;;;;;25.90;8.48;;;;;;;;;;10507502;28;20039;-74
2023/03/13 20:19:05;;;;;;;22.23;7.80;;;;;;;;;;10515729;28;20047;-74
2023/03/13 20:24:26;;;;;;;19.55;7.35;;;;;;;;;;10478186;28;20077;-73
2023/03/13 20:29:47;;;;;;;37.53;10.82;;;;;;;;;;10495000;28;20323;-76
2023/03/13 20:35:11;;;;;;;21.90;8.57;;;;;;;;;;10485271;28;20044;-74
2023/03/13 20:40:33;;;;;;;53.35;15.75;;;;;;;;;;10470884;28;20032;-74
2023/03/13 20:45:54;;;;;;;19.55;8.15;;;;;;;;;;10477485;28;20475;-74
2023/03/13 20:51:15;;;;;;;18.33;7.65;;;;;;;;;;10505101;28;20071;-75
2023/03/13 20:56:36;;;;;;;27.38;9.75;;;;;;;;;;10480881;28;20021;-74
2023/03/13 21:01:57;;;;;;;16.38;6.97;;;;;;;;;;10508467;28;20103;-75
2023/03/13 21:07:19;;;;;;;17.45;7.03;;;;;;;;;;10485270;28;20028;-75
2023/03/13 21:12:40;;;;;;;11.52;5.85;;;;;;;;;;10516515;28;20040;-74
2023/03/13 21:18:01;;;;;;;13.35;6.43;;;;;;;;;;10515232;28;20437;-73
2023/03/13 21:23:22;;;;;;;20.58;8.05;;;;;;;;;;10502770;28;20076;-73
2023/03/13 21:28:43;;;;;;;17.45;7.22;;;;;;;;;;10500750;28;20493;-73
2023/03/13 21:34:04;;;;;;;15.65;6.63;;;;;;;;;;10520805;28;20032;-74
2023/03/13 21:39:25;;;;;;;18.48;7.47;;;;;;;;;;10522795;28;20040;-75
2023/03/13 21:44:47;;;;;;;16.08;7.22;;;;;;;;;;10499207;28;20405;-73
2023/03/13 21:50:08;;;;;;;18.45;7.30;;;;;;;;;;10500286;28;20050;-74
2023/03/13 21:55:34;;;;;;;17.00;7.25;;;;;;;;;;10511146;28;20045;-73
2023/03/13 22:00:55;;;;;;;20.67;7.70;;;;;;;;;;10506375;28;20056;-74
2023/03/13 22:06:17;;;;;;;27.70;8.85;;;;;;;;;;10509211;28;20488;-74
2023/03/13 22:11:38;;;;;;;20.65;7.13;;;;;;;;;;10506750;27;20044;-74
2023/03/13 22:16:59;;;;;;;16.13;7.53;;;;;;;;;;10497286;28;20040;-74
2023/03/13 22:22:20;;;;;;;22.40;8.02;;;;;;;;;;10495645;28;20032;-74
2023/03/13 22:27:41;;;;;;;17.70;7.38;;;;;;;;;;10494005;28;20035;-74
2023/03/13 22:33:05;;;;;;;11.43;6.40;;;;;;;;;;10501988;28;20035;-74
2023/03/13 22:38:26;;;;;;;12.75;5.93;;;;;;;;;;10529191;28;20403;-75
2023/03/13 22:43:47;;;;;;;16.90;7.72;;;;;;;;;;10516108;28;20066;-75
2023/03/13 22:49:08;;;;;;;21.05;7.45;;;;;;;;;;10478666;28;20036;-75
2023/03/13 22:54:29;;;;;;;15.38;7.03;;;;;;;;;;10515714;28;20059;-75
2023/03/13 22:59:51;;;;;;;19.77;7.75;;;;;;;;;;10516665;28;20120;-74
2023/03/13 23:05:12;;;;;;;24.95;8.57;;;;;;;;;;10499533;28;20055;-74
2023/03/13 23:10:33;;;;;;;17.30;7.20;;;;;;;;;;10500634;28;20071;-74
2023/03/13 23:15:54;;;;;;;21.00;8.35;;;;;;;;;;10489788;28;20032;-75
2023/03/13 23:21:15;;;;;;;20.35;7.68;;;;;;;;;;10490379;28;20090;-75
2023/03/13 23:26:36;;;;;;;21.70;8.15;;;;;;;;;;10473804;28;20042;-74
2023/03/13 23:31:57;;;;;;;25.58;8.05;;;;;;;;;;10480968;28;20028;-75
2023/03/13 23:37:18;;;;;;;15.82;6.72;;;;;;;;;;10493380;28;20493;-75
2023/03/13 23:42:39;;;;;;;16.52;7.32;;;;;;;;;;10485402;28;20055;-75
2023/03/13 23:47:59;;;;;;;15.15;6.63;;;;;;;;;;10491763;28;20039;-75
2023/03/13 23:53:21;;;;;;;20.23;7.57;;;;;;;;;;10484395;28;20071;-74
2023/03/13 23:58:42;;;;;;;20.77;8.18;;;;;;;;;;10479346;28;20036;-74
